Time;durP1;ratioP1;P1;durP2;ratioP2;P2;SDS_P1;SDS_P2;PMS_P1;PMS_P2;Temp;Humidity;BMP_temperature;BMP_pressure;BME280_temperature;BME280_humidity;BME280_pressure;Samples;Min_cycle;Max_cycle;Signal;HPM_P1;HPM_P2
2022/11/09 00:01:20;;;;;;;9.10;8.60;;;14.60;27.80;;;;;;4945098;28;20514;-51
2022/11/09 00:03:46;;;;;;;8.47;7.97;;;14.60;28.00;;;;;;4943905;29;20447;-53
2022/11/09 00:06:13;;;;;;;9.10;8.50;;;14.60;28.30;;;;;;4943686;29;20930;-52
2022/11/09 00:08:39;;;;;;;8.90;8.50;;;14.60;28.20;;;;;;4944850;29;20526;-51
2022/11/09 00:11:07;;;;;;;8.77;8.17;;;14.60;27.20;;;;;;4943682;29;20466;-52
2022/11/09 00:13:38;;;;;;;8.00;7.40;;;14.50;27.40;;;;;;4944111;29;20478;-53
2022/11/09 00:16:09;;;;;;;8.60;8.03;;;14.40;28.10;;;;;;4943911;29;20482;-51
2022/11/09 00:18:36;;;;;;;7.93;7.60;;;14.30;27.80;;;;;;4945025;29;20833;-53
2022/11/09 00:21:10;;;;;;;8.37;7.97;;;14.20;28.20;;;;;;4944452;29;20502;-52
2022/11/09 00:23:35;;;;;;;7.87;7.50;;;14.20;28.40;;;;;;4944728;29;20426;-52
2022/11/09 00:26:08;;;;;;;9.37;8.87;;;14.20;28.40;;;;;;4945172;29;20419;-50
2022/11/09 00:28:34;;;;;;;9.73;9.13;;;14.30;28.80;;;;;;4945772;28;20186;-48
2022/11/09 00:31:01;;;;;;;8.13;7.63;;;14.40;28.80;;;;;;4944009;29;20841;-52
2022/11/09 00:33:27;;;;;;;7.47;7.00;;;14.40;28.70;;;;;;4943722;29;20415;-53
2022/11/09 00:35:53;;;;;;;8.30;7.80;;;14.50;28.80;;;;;;4944085;29;20976;-49
2022/11/09 00:38:19;;;;;;;8.27;7.87;;;14.50;28.80;;;;;;4942511;29;20671;-51
2022/11/09 00:40:45;;;;;;;8.90;8.40;;;14.50;28.60;;;;;;4946822;28;20913;-50
2022/11/09 00:43:11;;;;;;;8.67;8.27;;;14.50;27.80;;;;;;4943472;29;20437;-52
2022/11/09 00:45:39;;;;;;;8.03;7.53;;;14.50;28.30;;;;;;4945710;28;20183;-51
2022/11/09 00:48:05;;;;;;;7.67;7.37;;;14.40;27.40;;;;;;4946424;29;20191;-52
2022/11/09 00:50:31;;;;;;;8.87;8.37;;;14.40;27.70;;;;;;4947748;29;20478;-52
2022/11/09 00:52:57;;;;;;;8.43;7.93;;;14.30;27.20;;;;;;4947099;29;20423;-49
2022/11/09 00:55:23;;;;;;;8.23;7.63;;;14.20;27.40;;;;;;4945910;29;20434;-48
2022/11/09 00:57:49;;;;;;;8.23;7.83;;;14.10;27.80;;;;;;4945561;29;20286;-56
2022/11/09 01:00:17;;;;;;;8.43;8.03;;;14.10;27.80;;;;;;4946711;29;20770;-56
2022/11/09 01:02:42;;;;;;;8.47;8.07;;;14.10;27.80;;;;;;4946008;29;20431;-56
2022/11/09 01:05:08;;;;;;;8.37;7.87;;;14.10;27.90;;;;;;4946808;29;20442;-55
2022/11/09 01:07:36;;;;;;;7.83;7.43;;;14.10;27.80;;;;;;4944680;29;20793;-55
2022/11/09 01:10:02;;;;;;;7.70;7.40;;;14.10;28.00;;;;;;4946663;28;20615;-56
2022/11/09 01:12:28;;;;;;;8.43;8.03;;;14.10;28.00;;;;;;4946822;29;20449;-56
2022/11/09 01:14:53;;;;;;;8.30;7.60;;;14.10;27.80;;;;;;4944658;29;20427;-57
2022/11/09 01:17:19;;;;;;;8.50;8.00;;;14.10;28.00;;;;;;4927967;29;20183;-49
2022/11/09 01:19:44;;;;;;;8.50;8.10;;;14.10;27.90;;;;;;4946877;29;20229;-48
2022/11/09 01:22:10;;;;;;;8.20;7.80;;;14.10;27.80;;;;;;4945066;29;20270;-49
2022/11/09 01:24:36;;;;;;;8.47;8.07;;;14.10;27.80;;;;;;4928947;29;20231;-51
2022/11/09 01:27:01;;;;;;;8.40;8.00;;;14.10;27.90;;;;;;4945692;29;20215;-51
2022/11/09 01:29:27;;;;;;;8.97;8.47;;;14.00;28.00;;;;;;4945525;29;20672;-51
2022/11/09 01:31:56;;;;;;;8.67;8.17;;;14.00;28.00;;;;;;4946416;29;20203;-50
2022/11/09 01:34:21;;;;;;;9.13;8.60;;;14.00;28.00;;;;;;4946609;29;20187;-53
2022/11/09 01:36:51;;;;;;;8.30;7.90;;;14.00;28.10;;;;;;4943650;29;20912;-49
2022/11/09 01:39:18;;;;;;;9.00;8.60;;;14.00;28.10;;;;;;4944282;29;20261;-51
2022/11/09 01:41:44;;;;;;;9.40;8.60;;;14.00;28.10;;;;;;4944623;29;20442;-52
2022/11/09 01:44:18;;;;;;;9.00;8.40;;;14.00;28.10;;;;;;4944857;29;20842;-50
2022/11/09 01:46:55;;;;;;;8.73;8.20;;;14.00;28.10;;;;;;4944606;29;20521;-53
2022/11/09 01:49:23;;;;;;;8.97;8.47;;;14.00;28.10;;;;;;4943324;29;20422;-51
2022/11/09 01:51:58;;;;;;;8.80;8.50;;;14.10;28.20;;;;;;4942804;29;20423;-50
2022/11/09 01:54:32;;;;;;;8.20;7.80;;;14.20;28.40;;;;;;4945552;29;20457;-51
2022/11/09 01:57:02;;;;;;;8.93;8.33;;;14.30;28.50;;;;;;4942950;28;20429;-56
2022/11/09 01:59:32;;;;;;;9.00;8.47;;;14.40;28.20;;;;;;4946730;29;20415;-55
2022/11/09 02:01:59;;;;;;;8.33;7.93;;;14.40;27.90;;;;;;4945518;29;20414;-56
2022/11/09 02:04:48;;;;;;;8.47;8.07;;;14.50;27.70;;;;;;4945685;29;20431;-54
2022/11/09 02:07:14;;;;;;;8.50;7.97;;;14.50;27.60;;;;;;4940176;29;20434;-54
2022/11/09 02:09:58;;;;;;;8.53;8.13;;;14.60;28.10;;;;;;4943913;29;20967;-54
2022/11/09 02:12:26;;;;;;;9.07;8.47;;;14.60;28.00;;;;;;4944619;29;20175;-57
2022/11/09 02:14:53;;;;;;;9.27;8.67;;;14.60;28.00;;;;;;4943014;29;21170;-57
2022/11/09 02:17:20;;;;;;;8.17;7.77;;;14.60;28.20;;;;;;4943525;29;20422;-56
2022/11/09 02:19:46;;;;;;;8.90;8.50;;;14.60;28.20;;;;;;4943946;29;20427;-55
2022/11/09 02:22:12;;;;;;;8.20;7.90;;;14.60;28.40;;;;;;4941924;29;20427;-56
2022/11/09 02:24:37;;;;;;;8.30;7.90;;;14.70;28.30;;;;;;4945041;29;20556;-56
2022/11/09 02:27:05;;;;;;;8.60;8.20;;;14.60;28.30;;;;;;4943240;29;20238;-55
2022/11/09 02:29:41;;;;;;;8.23;7.93;;;14.70;28.40;;;;;;4941858;29;20601;-56
2022/11/09 02:32:16;;;;;;;9.07;8.57;;;14.70;28.30;;;;;;4944479;29;20418;-57
2022/11/09 02:34:41;;;;;;;8.97;8.40;;;14.70;28.70;;;;;;4942161;29;20417;-55
2022/11/09 02:37:07;;;;;;;9.57;8.77;;;14.70;28.20;;;;;;4944770;29;20777;-56
2022/11/09 02:39:33;;;;;;;8.40;8.07;;;14.70;28.40;;;;;;4942549;29;20571;-57
2022/11/09 02:42:03;;;;;;;8.63;8.23;;;14.80;28.30;;;;;;4942387;29;20644;-55
2022/11/09 02:44:38;;;;;;;8.30;7.70;;;14.70;28.30;;;;;;4944591;29;20438;-56
2022/11/09 02:47:04;;;;;;;7.80;7.50;;;14.80;28.10;;;;;;4941490;29;20419;-56
2022/11/09 02:49:29;;;;;;;8.43;8.13;;;14.80;27.40;;;;;;4942983;29;20410;-56
2022/11/09 02:51:55;;;;;;;8.67;8.27;;;14.90;27.20;;;;;;4942468;29;20270;-56
2022/11/09 02:54:21;;;;;;;8.13;7.63;;;14.90;26.90;;;;;;4943651;29;20175;-56
2022/11/09 02:56:46;;;;;;;8.77;8.30;;;14.90;26.50;;;;;;4944405;29;20270;-56
2022/11/09 02:59:12;;;;;;;7.80;7.50;;;15.00;26.60;;;;;;4942119;29;20175;-55
2022/11/09 03:01:37;;;;;;;7.67;7.30;;;14.90;26.50;;;;;;4942886;29;20190;-55
2022/11/09 03:04:03;;;;;;;8.23;7.83;;;15.00;26.60;;;;;;4941801;29;20183;-55
2022/11/09 03:06:35;;;;;;;8.70;8.20;;;14.90;26.50;;;;;;4941998;28;20191;-52
2022/11/09 03:09:04;;;;;;;9.07;8.70;;;14.80;26.40;;;;;;4942616;28;20179;-48
2022/11/09 03:11:30;;;;;;;8.30;7.93;;;14.60;27.00;;;;;;4940725;29;20499;-48
2022/11/09 03:13:56;;;;;;;9.53;9.03;;;14.50;27.60;;;;;;4942172;29;20445;-49
2022/11/09 03:16:22;;;;;;;8.57;8.17;;;14.50;29.50;;;;;;4942750;29;21006;-50
2022/11/09 03:18:48;;;;;;;9.10;8.60;;;14.40;30.80;;;;;;4941575;29;20811;-49
2022/11/09 03:21:13;;;;;;;8.60;8.13;;;14.40;31.10;;;;;;4941739;29;20271;-49
2022/11/09 03:23:39;;;;;;;8.67;8.27;;;14.40;32.50;;;;;;4943212;29;20465;-51
2022/11/09 03:26:04;;;;;;;9.90;9.40;;;14.30;34.20;;;;;;4941280;29;20183;-50
2022/11/09 03:28:30;;;;;;;8.83;8.43;;;14.40;34.60;;;;;;4940065;29;20187;-48
2022/11/09 03:30:56;;;;;;;9.40;9.00;;;14.40;35.50;;;;;;4941477;29;20211;-50
2022/11/09 03:33:21;;;;;;;9.47;8.97;;;14.40;36.80;;;;;;4941570;29;20581;-49
2022/11/09 03:35:47;;;;;;;10.30;9.70;;;14.40;37.20;;;;;;4941927;29;20776;-55
2022/11/09 03:38:13;;;;;;;10.57;10.07;;;14.40;37.70;;;;;;4941195;29;20543;-57
2022/11/09 03:40:39;;;;;;;10.67;10.13;;;14.40;37.90;;;;;;4940314;29;20490;-56
2022/11/09 03:43:04;;;;;;;10.53;9.93;;;14.40;38.70;;;;;;4940505;29;20214;-57
2022/11/09 03:45:30;;;;;;;9.97;9.50;;;14.40;39.10;;;;;;4940380;28;20187;-57
2022/11/09 03:47:58;;;;;;;9.87;9.40;;;14.40;39.60;;;;;;4940565;29;20592;-56
2022/11/09 03:50:25;;;;;;;10.23;9.70;;;14.50;40.20;;;;;;4944561;29;20727;-56
2022/11/09 03:52:51;;;;;;;9.70;9.20;;;14.50;40.00;;;;;;4955996;28;20421;-56
2022/11/09 03:55:17;;;;;;;10.10;9.70;;;14.40;40.80;;;;;;4979690;28;20418;-56
2022/11/09 03:57:44;;;;;;;8.50;8.20;;;14.50;41.20;;;;;;4978886;28;20341;-56
2022/11/09 04:00:11;;;;;;;10.17;9.67;;;14.40;40.60;;;;;;4979999;28;20429;-57
2022/11/09 04:02:37;;;;;;;9.50;8.93;;;14.40;40.70;;;;;;4979282;28;20822;-57
2022/11/09 04:05:03;;;;;;;10.30;9.70;;;14.40;40.50;;;;;;4980548;28;20429;-57
2022/11/09 04:07:29;;;;;;;10.60;10.20;;;14.30;41.00;;;;;;4981138;28;20659;-55
2022/11/09 04:09:54;;;;;;;9.43;9.03;;;14.30;41.60;;;;;;4980752;28;20480;-56
2022/11/09 04:12:20;;;;;;;9.73;9.23;;;14.30;41.70;;;;;;4980744;28;20180;-56
2022/11/09 04:14:45;;;;;;;9.87;9.27;;;14.20;42.00;;;;;;4980291;28;20639;-55
2022/11/09 04:17:11;;;;;;;10.77;9.73;;;14.20;42.10;;;;;;4964999;28;20184;-55
2022/11/09 04:19:37;;;;;;;11.23;10.20;;;14.30;42.00;;;;;;4980655;28;20176;-56
2022/11/09 04:22:02;;;;;;;10.33;9.73;;;14.30;42.30;;;;;;4983763;28;20178;-55
2022/11/09 04:24:28;;;;;;;10.20;9.80;;;14.30;42.30;;;;;;4986606;28;20182;-56
2022/11/09 04:26:54;;;;;;;10.97;10.40;;;14.30;42.50;;;;;;4986497;28;20208;-54
2022/11/09 04:29:19;;;;;;;11.00;10.40;;;14.30;42.70;;;;;;4987935;28;20612;-55
2022/11/09 04:31:48;;;;;;;11.30;10.70;;;14.30;42.80;;;;;;4987124;28;20497;-55
2022/11/09 04:34:13;;;;;;;10.67;10.17;;;14.40;42.90;;;;;;4988282;28;20423;-56
2022/11/09 04:36:39;;;;;;;11.07;10.50;;;14.30;43.40;;;;;;4989785;28;20766;-55
2022/11/09 04:39:05;;;;;;;11.50;10.90;;;14.30;44.20;;;;;;4987317;28;20186;-56
2022/11/09 04:41:30;;;;;;;10.67;10.17;;;14.40;44.00;;;;;;4988586;28;20690;-53
2022/11/09 04:43:56;;;;;;;11.50;10.70;;;14.40;44.40;;;;;;4991010;28;20681;-56
2022/11/09 04:46:22;;;;;;;10.53;10.13;;;14.30;44.40;;;;;;4990136;28;20177;-55
2022/11/09 04:48:47;;;;;;;10.60;10.10;;;14.40;45.10;;;;;;4989719;28;20182;-56
2022/11/09 04:51:13;;;;;;;10.63;10.23;;;14.40;45.50;;;;;;4990540;28;20202;-53
2022/11/09 04:53:39;;;;;;;10.20;9.70;;;14.40;45.50;;;;;;4989956;28;20200;-53
2022/11/09 04:56:06;;;;;;;10.00;9.60;;;14.30;45.40;;;;;;4989958;28;20182;-53
2022/11/09 04:58:32;;;;;;;10.43;9.73;;;14.30;45.80;;;;;;4993153;28;20410;-53
2022/11/09 05:01:04;;;;;;;10.80;10.30;;;14.20;46.70;;;;;;4992428;28;20824;-52
2022/11/09 05:03:29;;;;;;;10.57;10.07;;;14.30;47.40;;;;;;4991308;28;20472;-53
2022/11/09 05:05:55;;;;;;;10.73;10.30;;;14.20;47.00;;;;;;4991684;28;20421;-53
2022/11/09 05:08:21;;;;;;;11.47;10.77;;;13.90;47.40;;;;;;4992427;28;20673;-50
2022/11/09 05:10:46;;;;;;;11.67;10.57;;;13.80;48.70;;;;;;4992616;28;20686;-51
2022/11/09 05:13:12;;;;;;;11.07;10.57;;;13.70;49.50;;;;;;4992927;28;20657;-53
2022/11/09 05:15:38;;;;;;;10.93;10.43;;;13.50;50.50;;;;;;4992216;28;20174;-51
2022/11/09 05:18:05;;;;;;;12.50;11.90;;;13.40;50.00;;;;;;4991178;28;20182;-53
2022/11/09 05:20:30;;;;;;;11.60;11.10;;;13.20;51.40;;;;;;4989905;28;20445;-52
2022/11/09 05:25:42;;;;;;;11.50;11.00;;;12.90;52.90;;;;;;4993801;28;20188;-50
2022/11/09 05:28:07;;;;;;;11.40;10.70;;;13.00;54.10;;;;;;4990283;28;20422;-51
2022/11/09 05:30:33;;;;;;;10.93;10.43;;;13.10;52.50;;;;;;4990417;28;21001;-48
2022/11/09 05:32:59;;;;;;;10.80;10.30;;;13.10;52.40;;;;;;4991293;28;20178;-51
2022/11/09 05:35:25;;;;;;;11.30;10.70;;;12.90;52.60;;;;;;4991015;28;20178;-51
2022/11/09 05:37:50;;;;;;;11.00;10.30;;;12.90;52.90;;;;;;4993258;28;20182;-48
2022/11/09 05:40:18;;;;;;;10.57;10.07;;;12.80;53.90;;;;;;4991385;28;20269;-53
2022/11/09 05:42:43;;;;;;;10.83;10.23;;;12.90;54.00;;;;;;4992924;28;20190;-51
2022/11/09 05:45:11;;;;;;;11.70;11.10;;;12.90;54.60;;;;;;4991719;28;20658;-50
2022/11/09 05:47:42;;;;;;;10.17;9.70;;;12.80;53.90;;;;;;4990776;28;20618;-63
2022/11/09 05:50:12;;;;;;;11.30;10.40;;;12.80;53.90;;;;;;4991691;28;20496;-49
2022/11/09 05:52:38;;;;;;;11.00;10.40;;;12.70;53.80;;;;;;4990483;28;20417;-55
2022/11/09 05:55:05;;;;;;;11.03;10.43;;;12.80;54.40;;;;;;4990849;28;20426;-50
2022/11/09 05:57:31;;;;;;;11.63;10.90;;;12.90;54.00;;;;;;4971944;28;20425;-50
2022/11/09 05:59:57;;;;;;;11.30;10.60;;;12.90;54.00;;;;;;4970659;28;20862;-49
2022/11/09 06:02:23;;;;;;;11.50;10.67;;;13.10;54.40;;;;;;4973515;28;20560;-51
2022/11/09 06:04:49;;;;;;;10.87;10.00;;;13.20;54.20;;;;;;4989962;28;20236;-54
2022/11/09 06:07:14;;;;;;;11.03;10.33;;;13.30;54.30;;;;;;4990603;28;20505;-49
2022/11/09 06:09:40;;;;;;;10.87;10.17;;;13.40;53.80;;;;;;4991039;28;20185;-48
2022/11/09 06:12:06;;;;;;;12.30;11.60;;;13.40;53.10;;;;;;4989315;28;20170;-51
2022/11/09 06:14:31;;;;;;;11.50;10.90;;;13.40;53.20;;;;;;4989900;28;20193;-52
2022/11/09 06:16:57;;;;;;;11.43;10.83;;;13.30;51.70;;;;;;4990092;28;20185;-50
2022/11/09 06:19:23;;;;;;;10.60;10.20;;;13.20;51.60;;;;;;4990882;28;20180;-49
2022/11/09 06:21:48;;;;;;;11.60;10.80;;;13.10;52.10;;;;;;4989715;28;20184;-51
2022/11/09 06:24:14;;;;;;;12.23;11.63;;;13.00;53.10;;;;;;4989668;28;20211;-49
2022/11/09 06:26:39;;;;;;;11.70;11.00;;;12.80;53.40;;;;;;4988858;28;20178;-57
2022/11/09 06:29:05;;;;;;;10.97;10.47;;;12.70;54.30;;;;;;4990970;28;20186;-57
2022/11/09 06:31:31;;;;;;;11.00;10.40;;;12.60;54.30;;;;;;4989347;28;20209;-56
2022/11/09 06:33:56;;;;;;;11.70;11.20;;;12.70;55.10;;;;;;4990426;28;20206;-57
2022/11/09 06:36:22;;;;;;;12.37;11.73;;;12.60;54.70;;;;;;4978771;28;20182;-56
2022/11/09 06:38:49;;;;;;;11.90;11.40;;;12.60;55.30;;;;;;4989080;28;20182;-52
2022/11/09 06:41:15;;;;;;;12.70;11.97;;;12.60;55.20;;;;;;4990161;28;20520;-49
2022/11/09 06:43:41;;;;;;;11.50;10.90;;;12.60;55.20;;;;;;4987645;28;20568;-52
2022/11/09 06:46:09;;;;;;;11.70;10.70;;;12.60;55.00;;;;;;4989008;28;20245;-49
2022/11/09 06:48:38;;;;;;;11.70;11.20;;;12.50;54.40;;;;;;4988800;28;20475;-57
2022/11/09 06:51:05;;;;;;;11.30;10.63;;;12.50;54.60;;;;;;4987926;28;20468;-52
2022/11/09 06:53:33;;;;;;;13.03;12.33;;;12.50;54.80;;;;;;4990030;28;20821;-59
2022/11/09 06:56:00;;;;;;;11.53;10.93;;;12.50;55.60;;;;;;4991422;28;20410;-53
2022/11/09 06:58:27;;;;;;;10.10;9.70;;;12.60;55.80;;;;;;4973438;28;20450;-53
2022/11/09 07:00:53;;;;;;;11.97;11.07;;;12.60;55.40;;;;;;4970386;28;20485;-53
2022/11/09 07:03:20;;;;;;;11.40;10.83;;;12.60;54.90;;;;;;4971119;28;20418;-51
2022/11/09 07:05:48;;;;;;;13.50;12.70;;;12.60;54.90;;;;;;4971086;28;20187;-50
2022/11/09 07:08:14;;;;;;;11.10;10.40;;;12.70;55.00;;;;;;4970709;28;20821;-53
2022/11/09 07:10:40;;;;;;;11.40;10.80;;;12.80;54.70;;;;;;4984111;28;20547;-55
2022/11/09 07:13:06;;;;;;;11.33;10.53;;;12.90;54.70;;;;;;4990068;28;20413;-55
2022/11/09 07:15:34;;;;;;;11.67;11.00;;;12.90;54.50;;;;;;4989016;28;20418;-54
2022/11/09 07:18:01;;;;;;;12.53;11.43;;;12.80;54.50;;;;;;4988603;28;20420;-58
2022/11/09 07:20:27;;;;;;;11.87;11.23;;;12.90;55.40;;;;;;4979697;28;20818;-58
2022/11/09 07:22:53;;;;;;;10.30;9.70;;;13.10;54.70;;;;;;4968037;28;20422;-57
2022/11/09 07:25:19;;;;;;;9.87;9.10;;;13.30;54.30;;;;;;4970425;28;20473;-58
2022/11/09 07:27:45;;;;;;;10.57;10.03;;;13.30;54.30;;;;;;4968075;28;20418;-58
2022/11/09 07:30:12;;;;;;;9.73;9.23;;;13.30;54.50;;;;;;4969115;28;20806;-58
2022/11/09 07:32:39;;;;;;;9.93;9.13;;;13.40;54.90;;;;;;4967683;28;20764;-58
2022/11/09 07:35:05;;;;;;;9.50;9.00;;;13.50;54.50;;;;;;4968079;28;20421;-58
2022/11/09 07:37:32;;;;;;;9.17;8.57;;;13.50;54.80;;;;;;4969665;28;20410;-58
2022/11/09 07:39:57;;;;;;;9.87;9.43;;;13.50;55.50;;;;;;4969236;28;20950;-58
2022/11/09 07:42:23;;;;;;;8.50;8.10;;;13.50;56.00;;;;;;4966752;28;20468;-58
2022/11/09 07:44:49;;;;;;;9.53;9.03;;;13.60;56.10;;;;;;4972617;28;20332;-58
2022/11/09 07:47:17;;;;;;;9.23;8.83;;;13.60;55.60;;;;;;4971848;28;20421;-58
2022/11/09 07:49:42;;;;;;;9.57;9.07;;;13.70;55.50;;;;;;4971704;28;20190;-58
2022/11/09 07:52:08;;;;;;;8.93;8.43;;;13.70;55.20;;;;;;4971416;28;20429;-58
2022/11/09 07:54:35;;;;;;;9.90;9.10;;;13.80;55.00;;;;;;4971043;28;20180;-58
2022/11/09 07:57:00;;;;;;;16.80;8.57;;;13.90;54.80;;;;;;4971926;28;20182;-58
2022/11/09 07:59:26;;;;;;;9.90;9.20;;;13.90;54.80;;;;;;4971925;28;20977;-58
2022/11/09 08:01:52;;;;;;;10.70;10.10;;;14.00;55.00;;;;;;4971351;28;20185;-58
2022/11/09 08:04:18;;;;;;;10.33;9.83;;;13.80;53.80;;;;;;4971698;28;20926;-58
2022/11/09 08:06:44;;;;;;;10.50;10.00;;;13.70;54.60;;;;;;4987455;28;20198;-58
2022/11/09 08:09:09;;;;;;;9.80;9.40;;;13.60;54.50;;;;;;4991112;28;20252;-58
2022/11/09 08:11:35;;;;;;;10.20;9.70;;;13.60;54.50;;;;;;4987659;28;20218;-58
2022/11/09 08:14:01;;;;;;;9.87;9.23;;;13.60;55.40;;;;;;4960603;28;20171;-58
2022/11/09 08:16:27;;;;;;;8.80;8.20;;;13.70;55.70;;;;;;4960044;28;20422;-58
2022/11/09 08:18:52;;;;;;;8.90;8.40;;;13.80;55.60;;;;;;4962777;28;20237;-58
2022/11/09 08:21:18;;;;;;;8.37;8.03;;;13.90;55.40;;;;;;4958685;28;20179;-53
2022/11/09 08:23:44;;;;;;;9.13;8.60;;;14.00;55.20;;;;;;4961488;28;20558;-55
2022/11/09 08:26:10;;;;;;;10.07;9.23;;;14.10;55.10;;;;;;4959693;28;20175;-54
2022/11/09 08:28:36;;;;;;;9.93;9.43;;;14.00;53.70;;;;;;4960818;28;20505;-55
2022/11/09 08:31:06;;;;;;;9.10;8.60;;;14.00;54.90;;;;;;4960237;28;20458;-55
2022/11/09 08:33:36;;;;;;;10.20;9.70;;;14.00;54.60;;;;;;4957650;28;20411;-55
2022/11/09 08:36:08;;;;;;;10.40;9.80;;;14.00;53.50;;;;;;4960209;28;20476;-54
2022/11/09 08:38:34;;;;;;;9.93;9.37;;;14.00;53.40;;;;;;4959933;28;20908;-58
2022/11/09 08:40:59;;;;;;;10.00;9.50;;;13.90;52.50;;;;;;4959728;28;20422;-53
2022/11/09 08:43:25;;;;;;;10.50;9.90;;;13.70;53.20;;;;;;4961298;28;20238;-53
2022/11/09 08:45:51;;;;;;;9.93;9.53;;;13.60;53.30;;;;;;4961517;28;20183;-52
2022/11/09 08:48:16;;;;;;;10.13;9.53;;;13.40;54.40;;;;;;4943105;28;20429;-57
2022/11/09 08:50:42;;;;;;;10.07;9.57;;;13.30;55.20;;;;;;4958967;28;20204;-56
2022/11/09 08:53:08;;;;;;;9.63;9.13;;;13.30;56.00;;;;;;4960699;28;20513;-58
2022/11/09 08:55:34;;;;;;;10.33;9.83;;;13.30;55.60;;;;;;4958804;28;20241;-57
2022/11/09 08:58:03;;;;;;;9.77;9.27;;;13.30;56.40;;;;;;4961661;28;20411;-50
2022/11/09 09:00:29;;;;;;;8.80;8.40;;;13.20;56.50;;;;;;4951416;29;20423;-52
2022/11/09 09:02:55;;;;;;;8.30;7.90;;;13.20;56.10;;;;;;4952004;29;20419;-52
2022/11/09 09:05:21;;;;;;;9.80;9.20;;;13.20;56.20;;;;;;4952244;28;20779;-54
2022/11/09 09:07:46;;;;;;;8.47;8.07;;;13.20;57.00;;;;;;4955541;29;20179;-55
2022/11/09 09:10:12;;;;;;;8.90;8.20;;;13.20;56.90;;;;;;4955033;29;20462;-53
2022/11/09 09:12:37;;;;;;;8.33;7.83;;;13.30;57.00;;;;;;4955215;29;20563;-53
2022/11/09 09:15:04;;;;;;;9.13;8.43;;;13.30;57.20;;;;;;4955418;29;20175;-58
2022/11/09 09:17:30;;;;;;;9.10;8.43;;;13.40;57.00;;;;;;4955130;29;20258;-57
2022/11/09 09:19:55;;;;;;;8.60;8.10;;;13.40;57.10;;;;;;4954743;29;20523;-57
2022/11/09 09:22:21;;;;;;;7.73;7.07;;;13.50;57.10;;;;;;4955267;29;20214;-53
2022/11/09 09:24:47;;;;;;;7.40;7.20;;;13.60;56.70;;;;;;4955174;29;20512;-54
2022/11/09 09:27:12;;;;;;;8.40;8.10;;;13.60;55.90;;;;;;4955295;29;20680;-53
2022/11/09 09:29:38;;;;;;;8.07;7.70;;;13.50;55.90;;;;;;4964418;28;20253;-53
2022/11/09 09:32:04;;;;;;;7.90;7.50;;;13.60;56.20;;;;;;4974108;28;20187;-52
2022/11/09 09:34:30;;;;;;;7.27;6.97;;;13.50;55.70;;;;;;4974384;28;20414;-54
2022/11/09 09:36:55;;;;;;;8.03;7.63;;;13.60;56.10;;;;;;4974773;28;20270;-54
2022/11/09 09:39:21;;;;;;;7.87;7.47;;;13.50;56.20;;;;;;4974625;28;20523;-52
2022/11/09 09:42:04;;;;;;;7.30;6.87;;;13.50;56.70;;;;;;4974001;28;20186;-58
2022/11/09 09:45:05;;;;;;;7.10;6.80;;;13.50;57.10;;;;;;4974280;28;20194;-57
2022/11/09 09:47:53;;;;;;;7.40;7.10;;;13.50;57.00;;;;;;4967772;28;20429;-57
2022/11/09 09:50:29;;;;;;;7.80;7.40;;;13.50;56.30;;;;;;4973716;28;20477;-58
2022/11/09 09:53:00;;;;;;;7.37;7.17;;;13.60;56.40;;;;;;4974170;28;20422;-58
2022/11/09 09:55:41;;;;;;;6.27;6.07;;;13.50;56.30;;;;;;4973958;28;20433;-58
2022/11/09 09:58:17;;;;;;;6.57;6.37;;;13.50;56.30;;;;;;4974284;28;20437;-57
2022/11/09 10:00:44;;;;;;;6.93;6.53;;;13.50;56.10;;;;;;4973519;28;20924;-57
2022/11/09 10:03:17;;;;;;;6.93;6.63;;;13.50;56.50;;;;;;4973742;28;20436;-58
2022/11/09 10:06:12;;;;;;;6.43;6.13;;;13.50;56.40;;;;;;4973850;28;20489;-58
2022/11/09 10:09:05;;;;;;;7.13;6.90;;;13.50;57.10;;;;;;4973486;28;20414;-55
2022/11/09 10:11:34;;;;;;;7.53;7.23;;;13.50;56.50;;;;;;4973036;28;20469;-54
2022/11/09 10:14:33;;;;;;;7.37;6.97;;;13.60;56.70;;;;;;4973714;28;20775;-56
2022/11/09 10:17:21;;;;;;;6.37;6.07;;;13.60;56.60;;;;;;4973150;28;20414;-54
2022/11/09 10:19:47;;;;;;;6.83;6.53;;;13.70;56.80;;;;;;4973337;28;20418;-54
2022/11/09 10:22:54;;;;;;;7.47;7.17;;;13.70;57.30;;;;;;4973132;28;20418;-55
2022/11/09 10:25:26;;;;;;;6.70;6.30;;;13.80;57.00;;;;;;4973389;28;20170;-54
2022/11/09 10:28:01;;;;;;;7.00;6.70;;;13.80;56.80;;;;;;4973433;28;20449;-53
2022/11/09 10:30:29;;;;;;;7.57;7.27;;;13.80;56.30;;;;;;4972635;28;20454;-54
2022/11/09 10:33:09;;;;;;;6.67;6.37;;;13.90;57.20;;;;;;4973342;28;20508;-54
2022/11/09 10:36:08;;;;;;;6.90;6.57;;;14.00;56.80;;;;;;4973423;28;20424;-59
2022/11/09 10:38:45;;;;;;;7.03;6.73;;;14.00;56.80;;;;;;4974141;28;20423;-59
2022/11/09 10:41:32;;;;;;;7.40;7.03;;;14.10;56.50;;;;;;4972546;28;20422;-58
2022/11/09 10:43:57;;;;;;;7.23;6.93;;;14.10;56.20;;;;;;4973040;28;20445;-58
2022/11/09 10:46:23;;;;;;;7.57;7.17;;;14.20;56.50;;;;;;4973281;28;20418;-58
2022/11/09 10:48:49;;;;;;;7.10;6.80;;;14.20;55.20;;;;;;4972886;28;20187;-57
2022/11/09 10:51:37;;;;;;;7.67;7.13;;;14.20;55.70;;;;;;4972242;28;20217;-59
2022/11/09 10:54:17;;;;;;;7.37;7.10;;;14.30;55.20;;;;;;4972966;28;20411;-59
2022/11/09 10:56:45;;;;;;;7.60;7.30;;;14.30;54.70;;;;;;4972668;28;20417;-58
2022/11/09 10:59:44;;;;;;;8.47;8.07;;;14.30;55.20;;;;;;4972823;28;20493;-58
2022/11/09 11:02:39;;;;;;;7.87;7.57;;;14.40;54.80;;;;;;4972045;28;20434;-58
2022/11/09 11:05:05;;;;;;;6.80;6.50;;;14.50;55.40;;;;;;4972716;28;20410;-58
2022/11/09 11:07:31;;;;;;;7.10;6.80;;;14.50;55.40;;;;;;4972569;28;20509;-59
2022/11/09 11:10:19;;;;;;;8.10;7.53;;;14.60;55.40;;;;;;4971921;28;20195;-58
2022/11/09 11:13:05;;;;;;;8.40;8.10;;;14.60;54.20;;;;;;4972233;28;20414;-58
2022/11/09 11:15:34;;;;;;;7.83;7.33;;;14.60;54.40;;;;;;4947455;28;20423;-58
2022/11/09 11:18:01;;;;;;;7.40;7.10;;;14.70;54.80;;;;;;4953757;28;20423;-58
2022/11/09 11:20:33;;;;;;;7.93;7.53;;;14.70;53.90;;;;;;4960727;28;20425;-58
2022/11/09 11:23:35;;;;;;;8.20;7.90;;;14.70;54.60;;;;;;4953047;29;20785;-57
2022/11/09 11:26:29;;;;;;;8.03;7.53;;;14.80;54.50;;;;;;4916917;29;20968;-57
2022/11/09 11:29:13;;;;;;;7.77;7.47;;;14.80;53.40;;;;;;4952340;28;20517;-58
2022/11/09 11:31:39;;;;;;;7.63;7.20;;;14.90;54.60;;;;;;4952209;29;21002;-57
2022/11/09 11:34:12;;;;;;;8.10;7.70;;;14.90;52.70;;;;;;4952719;29;20419;-57
2022/11/09 11:37:12;;;;;;;8.40;8.00;;;14.90;52.80;;;;;;4952677;29;20255;-58
2022/11/09 11:39:49;;;;;;;8.40;8.00;;;14.90;52.90;;;;;;4952678;29;20419;-57
2022/11/09 11:42:41;;;;;;;8.27;7.83;;;14.90;52.60;;;;;;4952495;29;20792;-58
2022/11/09 11:45:12;;;;;;;7.90;7.60;;;15.00;51.40;;;;;;4952824;29;20419;-57
2022/11/09 11:47:47;;;;;;;8.13;7.53;;;15.00;52.00;;;;;;4961470;28;20454;-58
2022/11/09 11:50:44;;;;;;;8.77;8.00;;;15.00;52.20;;;;;;4971327;28;20453;-58
2022/11/09 11:53:25;;;;;;;8.40;8.00;;;15.00;51.60;;;;;;4972031;28;20549;-57
2022/11/09 11:56:01;;;;;;;8.47;8.03;;;15.00;51.60;;;;;;4971840;28;20410;-58
2022/11/09 11:58:43;;;;;;;8.00;7.70;;;15.00;51.90;;;;;;4971614;28;20772;-58
2022/11/09 12:01:24;;;;;;;8.70;8.10;;;15.10;51.80;;;;;;4971342;28;20469;-58
2022/11/09 12:04:01;;;;;;;9.30;8.67;;;15.10;51.60;;;;;;4982181;28;20455;-58
2022/11/09 12:06:58;;;;;;;8.60;8.30;;;15.10;50.80;;;;;;4991372;28;20925;-53
2022/11/09 12:09:45;;;;;;;7.97;7.67;;;15.10;50.30;;;;;;4991206;28;20496;-55
2022/11/09 12:12:14;;;;;;;7.57;7.27;;;15.10;50.40;;;;;;4990654;28;20428;-55
2022/11/09 12:15:01;;;;;;;8.30;8.00;;;15.10;50.10;;;;;;4991197;28;20419;-55
2022/11/09 12:17:33;;;;;;;8.23;7.90;;;15.10;50.10;;;;;;4991259;28;20488;-52
2022/11/09 12:20:32;;;;;;;8.20;7.90;;;15.20;50.00;;;;;;4990729;28;20902;-55
2022/11/09 12:23:35;;;;;;;8.10;7.70;;;15.20;50.50;;;;;;4986508;28;20923;-54
2022/11/09 12:26:53;;;;;;;9.47;8.87;;;15.20;49.40;;;;;;4991189;28;20476;-57
2022/11/09 12:29:22;;;;;;;9.33;8.83;;;15.20;49.40;;;;;;4920688;28;20440;-54
2022/11/09 12:32:16;;;;;;;8.30;7.90;;;15.20;49.80;;;;;;4990575;28;20523;-52
2022/11/09 12:35:03;;;;;;;8.53;8.23;;;15.20;49.40;;;;;;4992283;28;20456;-55
2022/11/09 12:37:36;;;;;;;8.40;8.00;;;15.20;48.80;;;;;;4991109;28;20417;-53
2022/11/09 12:40:27;;;;;;;9.13;8.83;;;15.20;49.30;;;;;;4990395;28;20428;-53
2022/11/09 12:43:15;;;;;;;8.23;8.00;;;15.20;49.00;;;;;;4983602;28;20468;-55
2022/11/09 12:45:41;;;;;;;9.30;8.80;;;15.30;49.50;;;;;;4994841;28;20424;-54
2022/11/09 12:48:18;;;;;;;8.77;8.27;;;15.30;49.80;;;;;;4996211;28;20512;-54
2022/11/09 12:50:44;;;;;;;8.70;8.40;;;15.40;49.40;;;;;;4994056;28;20466;-53
2022/11/09 12:53:10;;;;;;;10.20;9.70;;;15.40;49.00;;;;;;4976387;28;20434;-53
2022/11/09 12:56:01;;;;;;;9.37;8.97;;;15.40;49.00;;;;;;4972545;28;20411;-53
2022/11/09 12:58:29;;;;;;;9.10;8.80;;;15.40;49.20;;;;;;4955805;29;20979;-52